Time;durP1;ratioP1;P1;durP2;ratioP2;P2;SDS_P1;SDS_P2;PMS_P1;PMS_P2;Temp;Humidity;BMP_temperature;BMP_pressure;BME280_temperature;BME280_humidity;BME280_pressure;Samples;Min_cycle;Max_cycle;Signal;HPM_P1;HPM_P2
2022/03/08 00:02:05;;;;;;;16.20;12.43;;;2.90;97.60;;;2.59;67.86;94729.00;4993517;28;20561;-56
2022/03/08 00:04:33;;;;;;;14.67;11.13;;;2.90;97.50;;;2.60;67.97;94719.44;4992938;28;20464;-57
2022/03/08 00:07:00;;;;;;;12.00;9.93;;;2.90;97.50;;;2.59;68.32;94726.41;5002310;28;20592;-62
2022/03/08 00:09:29;;;;;;;16.43;11.50;;;2.90;97.60;;;2.61;68.38;94718.53;4999203;28;21033;-55
2022/03/08 00:11:56;;;;;;;13.57;11.60;;;2.90;97.50;;;2.60;67.68;94724.63;4999344;28;20470;-63
2022/03/08 00:14:23;;;;;;;14.17;11.40;;;2.90;97.50;;;2.60;68.67;94719.44;4994145;28;20826;-62
2022/03/08 00:16:51;;;;;;;11.70;10.50;;;2.90;97.50;;;2.60;68.54;94722.03;4994187;28;20474;-63
2022/03/08 00:19:18;;;;;;;13.73;11.17;;;2.90;97.60;;;2.60;67.89;94725.50;4991512;28;20458;-61
2022/03/08 00:21:45;;;;;;;15.87;11.83;;;2.90;97.50;;;2.62;68.76;94725.41;4997803;28;20845;-56
2022/03/08 00:24:14;;;;;;;14.27;9.97;;;2.90;97.40;;;2.59;68.25;94721.22;4999348;28;20510;-63
2022/03/08 00:26:43;;;;;;;16.63;11.40;;;2.90;97.20;;;2.59;68.10;94730.78;5000538;28;21062;-62
2022/03/08 00:29:10;;;;;;;13.73;11.57;;;2.90;97.30;;;2.58;68.22;94729.94;5004269;28;20515;-61
2022/03/08 00:31:37;;;;;;;15.87;11.00;;;2.90;97.40;;;2.58;69.21;94727.34;4993594;28;20474;-57
2022/03/08 00:34:05;;;;;;;13.80;10.60;;;2.90;97.60;;;2.60;68.86;94724.63;4993400;28;20456;-56
2022/03/08 00:36:32;;;;;;;12.47;9.40;;;2.90;97.40;;;2.60;67.64;94722.03;4992449;28;20506;-54
2022/03/08 00:39:00;;;;;;;12.57;10.37;;;2.90;97.20;;;2.60;67.86;94722.03;4997693;28;20459;-62
2022/03/08 00:41:27;;;;;;;13.67;9.50;;;2.90;97.10;;;2.61;68.08;94718.53;4998238;28;20498;-53
2022/03/08 00:43:55;;;;;;;13.80;10.10;;;2.90;97.10;;;2.61;67.86;94718.53;5003381;28;20474;-54
2022/03/08 00:46:23;;;;;;;12.13;10.20;;;2.90;96.90;;;2.62;68.10;94722.81;4999739;28;20470;-63
2022/03/08 00:48:50;;;;;;;14.93;10.50;;;2.90;97.10;;;2.63;67.18;94725.31;4998989;28;20455;-56
2022/03/08 00:51:17;;;;;;;14.80;10.70;;;2.90;97.10;;;2.63;67.41;94716.66;4990921;28;20487;-61
2022/03/08 00:53:45;;;;;;;14.80;10.87;;;2.90;97.10;;;2.64;67.64;94718.34;4991396;28;20865;-61
2022/03/08 00:56:12;;;;;;;13.80;10.77;;;2.90;97.00;;;2.63;67.80;94719.25;4996503;28;20493;-55
2022/03/08 00:58:41;;;;;;;15.60;10.87;;;2.90;97.10;;;2.63;67.07;94714.06;4993004;28;20542;-57
2022/03/08 01:01:09;;;;;;;13.43;9.90;;;2.90;97.10;;;2.64;67.62;94723.53;4991660;28;20502;-62
2022/03/08 01:03:36;;;;;;;14.83;10.97;;;2.90;97.10;;;2.64;67.56;94720.94;4992591;28;20931;-56
2022/03/08 01:06:04;;;;;;;16.03;11.80;;;2.90;97.10;;;2.63;67.14;94719.25;5000188;28;20595;-62
2022/03/08 01:08:31;;;;;;;16.70;11.57;;;2.90;97.10;;;2.64;67.56;94723.53;4993897;28;21051;-63
2022/03/08 01:10:59;;;;;;;16.77;11.43;;;2.90;97.00;;;2.61;68.15;94721.13;4990075;28;20470;-62
2022/03/08 01:13:26;;;;;;;12.27;9.73;;;2.90;97.10;;;2.62;67.48;94712.41;4993164;28;20454;-53
2022/03/08 01:15:53;;;;;;;14.30;11.70;;;2.90;96.80;;;2.64;67.04;94720.94;4988305;28;20482;-56
2022/03/08 01:18:22;;;;;;;16.83;11.50;;;2.90;97.10;;;2.63;67.65;94716.66;4989610;28;20933;-55
2022/03/08 01:20:49;;;;;;;13.20;10.60;;;2.90;97.10;;;2.64;67.85;94716.56;4998457;28;20490;-56
2022/03/08 01:23:16;;;;;;;15.83;11.20;;;2.90;97.10;;;2.66;68.09;94716.47;5003091;28;20496;-58
2022/03/08 01:25:44;;;;;;;16.90;11.20;;;3.00;97.00;;;2.67;66.76;94712.97;5001850;28;20835;-56
2022/03/08 01:28:11;;;;;;;14.20;11.40;;;3.00;96.80;;;2.68;67.63;94714.59;4987194;28;20462;-64
2022/03/08 01:30:38;;;;;;;18.20;12.53;;;3.00;96.60;;;2.68;66.25;94714.59;4989852;28;20470;-63
2022/03/08 01:33:06;;;;;;;19.97;11.97;;;3.00;96.30;;;2.70;66.62;94712.75;4989731;28;20835;-56
2022/03/08 01:35:35;;;;;;;23.30;12.80;;;3.00;96.40;;;2.71;66.79;94717.00;4986189;28;20454;-56
2022/03/08 01:38:03;;;;;;;18.00;12.30;;;3.00;96.50;;;2.70;67.08;94712.75;4996429;28;20461;-62
2022/03/08 01:40:30;;;;;;;17.13;12.20;;;3.00;96.50;;;2.67;66.39;94721.56;4996579;28;20456;-54
2022/03/08 01:42:57;;;;;;;20.50;13.37;;;3.00;95.80;;;2.63;65.89;94706.28;4993364;28;20577;-57
2022/03/08 01:45:27;;;;;;;19.20;12.67;;;3.00;96.10;;;2.59;67.29;94712.63;4991350;28;20461;-62
2022/03/08 01:47:54;;;;;;;16.33;11.60;;;2.90;96.20;;;2.59;66.85;94712.63;4991134;28;20457;-55
2022/03/08 01:50:22;;;;;;;15.63;12.77;;;2.90;96.30;;;2.54;66.07;94706.84;4991509;28;20464;-61
2022/03/08 01:52:50;;;;;;;17.20;12.20;;;2.90;96.00;;;2.50;66.56;94707.03;4993159;28;20490;-54
2022/03/08 01:55:18;;;;;;;17.33;12.17;;;2.80;96.30;;;2.49;67.00;94699.34;4990357;28;20465;-61
2022/03/08 01:57:45;;;;;;;24.37;15.60;;;2.80;96.30;;;2.50;66.32;94698.44;4988938;28;20462;-62
2022/03/08 02:00:16;;;;;;;18.13;13.07;;;2.80;96.30;;;2.50;67.10;94707.03;4992009;28;20855;-58
2022/03/08 02:02:43;;;;;;;24.50;14.20;;;2.80;96.40;;;2.50;66.94;94694.06;4996989;28;20975;-61
2022/03/08 02:05:10;;;;;;;21.87;13.47;;;2.80;96.20;;;2.46;66.52;94695.19;4986983;28;20447;-61
2022/03/08 02:07:38;;;;;;;20.03;14.47;;;2.80;95.90;;;2.41;66.00;94693.81;4992561;28;20537;-62
2022/03/08 02:10:08;;;;;;;20.30;13.77;;;2.70;95.90;;;2.37;66.83;94690.56;4991653;28;20542;-56
2022/03/08 02:12:35;;;;;;;17.93;13.13;;;2.70;96.20;;;2.37;67.10;94694.91;4985640;28;20541;-56
2022/03/08 02:15:15;;;;;;;22.07;16.73;;;2.70;96.30;;;2.37;66.58;94695.75;4993133;28;20457;-64
2022/03/08 02:17:43;;;;;;;21.60;15.20;;;2.70;96.50;;;2.39;66.99;94693.91;4990216;28;20482;-63
2022/03/08 02:20:11;;;;;;;23.53;16.23;;;2.70;96.40;;;2.41;67.03;94699.00;4992401;28;20465;-56
2022/03/08 02:22:40;;;;;;;21.23;14.20;;;2.70;96.40;;;2.41;66.75;94697.22;4990945;28;20513;-63
2022/03/08 02:25:08;;;;;;;23.40;15.90;;;2.80;96.30;;;2.42;66.51;94698.91;4987390;28;20491;-55
2022/03/08 02:27:39;;;;;;;24.27;14.90;;;2.80;96.40;;;2.43;65.85;94694.53;4987759;28;21017;-54
2022/03/08 02:30:07;;;;;;;23.00;14.63;;;2.70;96.10;;;2.42;66.81;94698.91;4989583;28;21993;-53
2022/03/08 02:32:35;;;;;;;21.90;14.10;;;2.70;96.20;;;2.43;66.42;94702.31;4994455;28;20535;-55
2022/03/08 02:35:06;;;;;;;27.30;16.57;;;2.80;96.40;;;2.44;67.55;94707.41;4993652;28;20520;-54
2022/03/08 02:37:39;;;;;;;28.13;15.50;;;2.70;96.40;;;2.42;65.94;94698.91;4998133;28;20473;-59
2022/03/08 02:40:09;;;;;;;19.13;14.13;;;2.80;96.30;;;2.43;67.05;94713.56;4997181;28;20926;-55
2022/03/08 02:42:36;;;;;;;23.60;15.67;;;2.80;96.30;;;2.44;67.02;94706.59;4986490;28;20498;-53
2022/03/08 02:45:04;;;;;;;20.23;14.30;;;2.70;96.20;;;2.42;66.67;94711.06;4986367;28;20458;-62
2022/03/08 02:47:31;;;;;;;21.60;15.40;;;2.80;96.50;;;2.41;67.05;94704.19;4992758;28;20475;-63
2022/03/08 02:49:59;;;;;;;23.60;15.07;;;2.70;96.00;;;2.43;65.94;94715.31;4987947;28;20462;-64
2022/03/08 02:52:26;;;;;;;21.80;14.17;;;2.80;96.20;;;2.43;67.12;94717.91;4991865;28;21058;-55
2022/03/08 02:54:54;;;;;;;25.80;16.40;;;2.70;96.20;;;2.44;67.10;94723.00;4999647;28;20987;-55
2022/03/08 02:57:22;;;;;;;27.47;15.83;;;2.80;96.30;;;2.44;67.23;94717.81;4992517;28;20528;-62
2022/03/08 02:59:49;;;;;;;24.53;15.10;;;2.80;96.40;;;2.45;66.54;94723.84;4997057;28;20795;-62
2022/03/08 03:02:16;;;;;;;29.97;16.30;;;2.80;96.30;;;2.47;66.40;94727.16;4988465;28;20494;-57
2022/03/08 03:04:45;;;;;;;25.70;15.60;;;2.80;96.40;;;2.47;67.15;94727.16;4989935;28;20457;-55
2022/03/08 03:07:12;;;;;;;21.70;15.07;;;2.80;96.40;;;2.47;67.00;94725.41;4991892;28;20462;-55
2022/03/08 03:09:40;;;;;;;26.07;15.17;;;2.80;96.40;;;2.48;66.41;94729.69;4998743;28;20934;-63
2022/03/08 03:12:09;;;;;;;24.43;14.80;;;2.80;96.40;;;2.49;67.17;94723.56;4991283;28;20535;-55
2022/03/08 03:14:37;;;;;;;28.13;17.63;;;2.80;96.30;;;2.50;65.96;94733.00;4996513;28;20607;-62
2022/03/08 03:17:05;;;;;;;26.43;15.40;;;2.80;96.20;;;2.50;67.83;94735.59;5004313;28;20485;-55
2022/03/08 03:19:32;;;;;;;26.93;14.53;;;2.80;96.40;;;2.51;66.84;94739.88;4986349;28;20506;-54
2022/03/08 03:21:59;;;;;;;24.50;16.27;;;2.80;96.30;;;2.51;66.27;94734.69;4990999;28;20535;-55
2022/03/08 03:24:26;;;;;;;21.77;16.50;;;2.90;96.40;;;2.53;67.11;94738.94;4993780;28;20478;-54
2022/03/08 03:26:54;;;;;;;27.00;14.80;;;2.80;96.20;;;2.54;66.57;94738.00;4990445;28;20490;-55
2022/03/08 03:29:22;;;;;;;24.23;15.07;;;2.90;96.40;;;2.53;66.27;94741.53;4995040;28;20454;-54
2022/03/08 03:31:50;;;;;;;22.83;16.40;;;2.90;96.30;;;2.55;66.52;94739.69;5000997;28;20465;-62
2022/03/08 03:34:17;;;;;;;23.57;14.70;;;2.90;96.40;;;2.53;67.56;94737.19;4995771;28;20454;-63
2022/03/08 03:36:44;;;;;;;26.20;17.00;;;2.90;96.40;;;2.55;67.26;94745.69;4994097;28;20479;-62
2022/03/08 03:39:12;;;;;;;23.33;15.80;;;2.90;96.40;;;2.56;66.50;94738.75;4986077;28;20509;-56
2022/03/08 03:41:39;;;;;;;24.10;15.23;;;2.90;96.50;;;2.59;67.33;94741.16;4988272;28;21017;-62
2022/03/08 03:44:06;;;;;;;22.33;14.80;;;2.90;96.30;;;2.59;66.90;94736.81;4986791;28;20478;-59
2022/03/08 03:46:35;;;;;;;25.80;15.40;;;2.90;96.40;;;2.60;66.17;94738.47;4992949;28;20488;-54
2022/03/08 03:49:02;;;;;;;19.77;13.63;;;2.90;96.30;;;2.60;66.87;94732.44;4994260;28;20870;-55
2022/03/08 03:51:29;;;;;;;24.40;14.80;;;2.90;96.30;;;2.61;66.89;94740.13;4996568;28;20487;-56
2022/03/08 03:53:56;;;;;;;22.40;15.30;;;2.90;96.20;;;2.61;67.28;94739.31;4996259;28;20459;-63
2022/03/08 03:56:24;;;;;;;36.50;19.63;;;2.90;96.30;;;2.62;67.04;94741.81;4995951;28;20550;-63
2022/03/08 03:58:51;;;;;;;26.37;17.00;;;2.90;96.30;;;2.63;66.51;94745.22;4987315;28;20999;-55
2022/03/08 04:01:18;;;;;;;29.43;17.23;;;2.90;96.30;;;2.64;66.90;94739.13;4984002;28;20518;-62
2022/03/08 04:03:47;;;;;;;25.40;16.40;;;2.90;96.30;;;2.64;67.12;94746.91;4989522;28;20482;-62
2022/03/08 04:06:19;;;;;;;25.67;15.83;;;3.00;96.40;;;2.65;66.94;94739.03;4994061;28;20567;-64
2022/03/08 04:08:46;;;;;;;27.73;16.33;;;3.00;96.40;;;2.65;67.28;94740.75;4993801;28;20465;-63
2022/03/08 04:11:14;;;;;;;25.10;16.20;;;3.00;96.30;;;2.67;67.18;94736.31;4992476;28;20811;-56
2022/03/08 04:13:41;;;;;;;27.97;16.17;;;3.00;96.50;;;2.67;66.55;94744.13;4983127;28;20458;-63
2022/03/08 04:16:10;;;;;;;23.53;16.53;;;3.00;96.30;;;2.67;66.49;94744.13;4987081;28;20482;-55
2022/03/08 04:18:37;;;;;;;23.73;15.20;;;3.00;96.30;;;2.67;66.32;94744.13;4991312;28;20459;-62
2022/03/08 04:21:05;;;;;;;24.60;16.83;;;3.00;96.20;;;2.68;66.63;94738.81;4988960;28;20606;-56
2022/03/08 04:23:33;;;;;;;23.70;14.70;;;3.00;96.30;;;2.69;67.20;94740.47;4994409;28;20454;-63
2022/03/08 04:26:00;;;;;;;21.60;14.00;;;3.00;96.30;;;2.70;66.75;94743.94;4995162;28;20477;-56
2022/03/08 04:28:27;;;;;;;18.40;14.00;;;3.00;96.30;;;2.70;66.25;94738.72;4992896;28;20454;-63
2022/03/08 04:30:55;;;;;;;25.07;16.07;;;3.00;96.30;;;2.71;67.26;94744.75;4990560;28;20481;-62
2022/03/08 04:33:22;;;;;;;24.77;16.03;;;3.00;96.30;;;2.69;66.58;94735.28;4995020;28;20458;-63
2022/03/08 04:35:49;;;;;;;23.63;14.73;;;3.00;96.40;;;2.69;67.62;94743.06;4987600;28;20470;-56
2022/03/08 04:38:18;;;;;;;22.93;15.00;;;3.00;96.50;;;2.70;67.21;94741.31;4995445;28;20455;-63
2022/03/08 04:40:45;;;;;;;20.43;15.60;;;3.00;96.40;;;2.70;66.26;94741.31;4991019;28;20445;-56
2022/03/08 04:43:13;;;;;;;23.80;14.87;;;3.00;96.40;;;2.68;66.50;94741.44;4995651;28;20490;-55
2022/03/08 04:45:40;;;;;;;33.93;15.50;;;3.00;96.20;;;2.67;66.23;94739.75;4993296;28;20446;-61
2022/03/08 04:48:08;;;;;;;25.93;16.03;;;3.00;96.30;;;2.66;66.58;94740.66;5003028;28;20845;-54
2022/03/08 04:50:35;;;;;;;20.70;14.17;;;3.00;96.40;;;2.68;67.25;94740.56;4998651;28;20501;-63
2022/03/08 04:53:03;;;;;;;19.00;13.60;;;3.00;96.30;;;2.68;66.74;94740.56;4987400;28;20820;-62
2022/03/08 04:55:32;;;;;;;24.47;16.60;;;3.00;96.20;;;2.68;66.44;94743.16;4991389;28;20532;-61
2022/03/08 04:57:59;;;;;;;21.97;15.20;;;3.00;96.50;;;2.68;66.82;94741.44;4996816;28;20455;-62
2022/03/08 05:00:26;;;;;;;24.10;15.97;;;3.00;96.50;;;2.69;66.90;94748.25;4989371;28;20594;-56
2022/03/08 05:02:53;;;;;;;27.03;16.60;;;3.00;96.50;;;2.69;67.19;94747.44;5000668;28;20486;-57
2022/03/08 05:05:21;;;;;;;24.30;15.60;;;3.00;96.50;;;2.69;66.60;94744.84;4998391;28;20463;-57
2022/03/08 05:07:48;;;;;;;26.57;16.17;;;3.00;96.40;;;2.68;66.85;94746.63;5006883;28;20478;-57
2022/03/08 05:10:15;;;;;;;25.83;16.70;;;3.00;96.40;;;2.68;66.72;94743.16;4999475;28;20449;-62
2022/03/08 05:12:44;;;;;;;23.33;15.97;;;3.00;96.40;;;2.68;66.84;94753.56;4991728;28;20483;-56
2022/03/08 05:15:11;;;;;;;28.10;15.00;;;3.00;96.20;;;2.67;66.27;94749.31;4993952;28;20469;-55
2022/03/08 05:17:39;;;;;;;21.70;14.30;;;3.00;96.20;;;2.65;66.09;94754.59;4988191;28;20482;-56
2022/03/08 05:20:07;;;;;;;24.87;15.80;;;3.00;96.50;;;2.65;66.35;94746.81;4996012;28;20450;-62
2022/03/08 05:22:35;;;;;;;26.03;16.20;;;2.90;96.30;;;2.64;67.20;94739.94;4990641;28;20493;-62
2022/03/08 05:25:03;;;;;;;24.63;15.30;;;3.00;96.30;;;2.65;67.41;94743.34;4988713;28;20525;-62
2022/03/08 05:27:30;;;;;;;22.23;15.00;;;3.00;96.50;;;2.65;67.61;94745.94;4997870;28;20823;-61
2022/03/08 05:29:59;;;;;;;27.13;15.90;;;3.00;96.60;;;2.70;69.88;94746.53;4988522;28;20447;-56
2022/03/08 05:32:26;;;;;;;26.50;16.90;;;3.00;98.40;;;2.83;69.93;94744.00;4991467;28;20994;-63
2022/03/08 05:34:53;;;;;;;31.77;17.80;;;3.00;98.60;;;2.91;68.26;94743.50;4992037;28;20446;-57
2022/03/08 05:37:20;;;;;;;28.70;17.50;;;3.20;97.90;;;2.94;68.01;94751.94;4996133;28;20539;-63
2022/03/08 05:39:48;;;;;;;26.97;17.73;;;3.20;97.30;;;2.95;67.57;94753.59;4992306;28;20462;-56
2022/03/08 05:42:15;;;;;;;24.87;15.87;;;3.20;97.20;;;2.96;67.85;94749.22;5000102;28;20896;-57
2022/03/08 05:44:42;;;;;;;28.87;16.10;;;3.20;97.20;;;2.97;67.05;94751.72;4993773;28;20778;-58
2022/03/08 05:47:11;;;;;;;24.50;15.50;;;3.30;96.90;;;2.96;66.70;94757.03;4998627;28;20463;-57
2022/03/08 05:49:38;;;;;;;27.33;16.10;;;3.20;96.20;;;2.94;66.78;94757.13;4985535;28;20509;-62
2022/03/08 05:52:07;;;;;;;23.00;14.90;;;3.20;96.20;;;2.92;66.30;94755.56;4990085;28;20583;-57
2022/03/08 05:54:34;;;;;;;26.67;16.60;;;3.20;96.00;;;2.87;66.07;94761.88;4992634;28;20453;-57
2022/03/08 05:57:01;;;;;;;23.53;15.17;;;3.20;95.90;;;2.85;65.73;94757.69;4997460;28;20489;-54
2022/03/08 05:59:29;;;;;;;24.50;16.63;;;3.20;95.90;;;2.81;66.14;94761.44;4993515;28;20517;-56
2022/03/08 06:01:56;;;;;;;24.90;15.87;;;3.10;95.90;;;2.79;65.76;94764.13;4998413;28;20978;-54
2022/03/08 06:04:25;;;;;;;20.10;14.27;;;3.10;95.90;;;2.78;66.42;94757.25;4999434;28;20458;-57
2022/03/08 06:06:54;;;;;;;30.70;15.23;;;3.10;96.00;;;2.75;66.32;94754.84;4993660;28;20551;-57
2022/03/08 06:09:21;;;;;;;25.30;15.80;;;3.00;95.80;;;2.76;65.89;94759.13;4990709;28;21027;-58
2022/03/08 06:11:48;;;;;;;21.63;14.33;;;3.10;95.90;;;2.78;66.24;94767.66;4992585;28;20474;-55
2022/03/08 06:14:16;;;;;;;22.47;14.67;;;3.10;96.10;;;2.83;66.66;94764.75;4989734;28;20450;-55
2022/03/08 06:16:43;;;;;;;22.67;15.43;;;3.10;96.10;;;2.86;66.66;94767.16;4991021;28;20536;-63
2022/03/08 06:19:10;;;;;;;24.10;15.23;;;3.10;96.10;;;2.89;66.69;94769.56;4990298;28;20463;-63
2022/03/08 06:21:39;;;;;;;26.20;16.83;;;3.20;96.30;;;2.94;66.35;94762.31;5002243;28;20473;-55
2022/03/08 06:24:07;;;;;;;27.07;16.73;;;3.20;96.20;;;2.98;66.42;94769.00;4992479;28;20479;-58
2022/03/08 06:26:34;;;;;;;22.40;15.83;;;3.30;96.20;;;3.02;66.56;94767.03;4989558;28;20486;-55
2022/03/08 06:29:02;;;;;;;25.93;15.07;;;3.30;96.00;;;3.06;66.31;94768.53;4986654;28;20454;-66
2022/03/08 06:31:29;;;;;;;26.40;15.93;;;3.30;96.00;;;3.09;65.53;94763.13;4987314;28;20474;-58
2022/03/08 06:33:56;;;;;;;21.07;13.90;;;3.40;96.00;;;3.14;65.31;94770.63;4989811;28;20454;-57
2022/03/08 06:36:23;;;;;;;24.07;14.77;;;3.40;95.60;;;3.17;65.32;94768.66;5000414;28;20481;-56
2022/03/08 06:38:52;;;;;;;20.27;13.20;;;3.50;95.70;;;3.20;66.20;94771.06;5002803;28;20461;-56
2022/03/08 06:41:19;;;;;;;21.60;14.03;;;3.50;95.60;;;3.22;65.05;94782.22;5003150;28;20477;-55
2022/03/08 06:43:47;;;;;;;19.17;13.27;;;3.50;95.50;;;3.29;65.26;94779.22;4994407;28;21013;-67
2022/03/08 06:46:14;;;;;;;18.73;13.80;;;3.50;95.40;;;3.31;65.22;94774.75;4987969;28;20471;-66
2022/03/08 06:48:41;;;;;;;19.00;13.43;;;3.60;95.50;;;3.33;65.44;94784.13;4994232;28;20496;-56
2022/03/08 06:51:09;;;;;;;21.33;12.67;;;3.60;95.20;;;3.30;64.57;94778.28;4996101;28;20911;-54
2022/03/08 06:53:36;;;;;;;18.87;13.90;;;3.60;94.80;;;3.28;63.94;94785.34;4998251;28;20517;-68
2022/03/08 06:56:05;;;;;;;20.30;13.20;;;3.60;94.70;;;3.26;64.65;94782.84;4998981;28;20482;-56
2022/03/08 06:58:32;;;;;;;20.80;13.20;;;3.60;94.80;;;3.23;64.35;94778.66;4989829;28;20771;-68
2022/03/08 07:00:59;;;;;;;17.90;12.93;;;3.50;94.70;;;3.22;64.63;94787.41;4995589;28;20501;-56
2022/03/08 07:03:27;;;;;;;24.30;13.77;;;3.50;94.40;;;3.20;64.14;94785.84;4987882;28;20490;-66
2022/03/08 07:05:54;;;;;;;22.20;12.77;;;3.50;94.70;;;3.21;65.04;94780.53;4992374;28;20553;-56
2022/03/08 07:08:22;;;;;;;16.27;11.13;;;3.50;94.80;;;3.19;63.36;94781.56;4990880;28;20472;-67
2022/03/08 07:10:50;;;;;;;19.13;13.40;;;3.50;94.10;;;3.14;64.43;94786.22;4990227;28;21014;-66
2022/03/08 07:13:19;;;;;;;16.13;12.00;;;3.40;94.00;;;3.11;64.51;94783.81;4992161;28;21013;-65
2022/03/08 07:15:46;;;;;;;12.80;10.63;;;3.40;94.90;;;3.11;65.42;94779.44;4991867;28;20533;-56
2022/03/08 07:18:13;;;;;;;18.50;12.37;;;3.40;95.10;;;3.14;64.50;94779.25;4995821;28;20454;-58
2022/03/08 07:20:41;;;;;;;15.87;11.60;;;3.40;94.70;;;3.14;64.21;94786.22;4991576;28;20450;-56
2022/03/08 07:23:08;;;;;;;18.90;10.87;;;3.40;94.50;;;3.16;64.22;94785.22;4985634;28;20495;-56
2022/03/08 07:25:36;;;;;;;18.23;12.27;;;3.40;94.70;;;3.15;64.04;94780.94;4991669;28;20460;-60
2022/03/08 07:28:04;;;;;;;15.70;11.90;;;3.40;94.70;;;3.17;63.43;94786.84;4989475;28;20572;-69
2022/03/08 07:30:33;;;;;;;17.90;11.60;;;3.50;94.20;;;3.14;63.88;94781.03;4993170;28;21150;-70
2022/03/08 07:33:00;;;;;;;22.67;11.90;;;3.40;94.00;;;3.14;63.25;94783.63;4994057;28;20446;-67
2022/03/08 07:35:28;;;;;;;15.90;11.73;;;3.40;94.10;;;3.15;63.59;94791.31;4989140;28;20448;-56
2022/03/08 07:37:55;;;;;;;17.80;13.07;;;3.40;94.20;;;3.14;63.29;94774.06;4993842;28;20450;-57
2022/03/08 07:40:23;;;;;;;21.83;12.97;;;3.40;93.90;;;3.10;63.14;94782.13;4987241;28;20463;-65
2022/03/08 07:42:50;;;;;;;19.40;12.80;;;3.40;93.80;;;3.05;63.68;94777.22;4983095;28;20494;-67
2022/03/08 07:45:18;;;;;;;18.23;13.70;;;3.40;93.90;;;3.03;63.54;94776.50;4987360;28;20455;-56
2022/03/08 07:47:47;;;;;;;17.53;12.30;;;3.30;93.80;;;2.99;63.43;94780.22;4988442;28;20563;-67
2022/03/08 07:50:15;;;;;;;20.17;15.17;;;3.30;93.50;;;2.97;63.54;94788.09;4992090;28;20537;-69
2022/03/08 07:52:42;;;;;;;21.10;13.50;;;3.30;93.80;;;2.96;63.03;94785.59;4988956;28;20883;-70
2022/03/08 07:55:10;;;;;;;23.07;14.00;;;3.30;93.70;;;2.96;63.15;94786.47;4996614;28;20544;-67
2022/03/08 07:57:38;;;;;;;18.80;13.57;;;3.30;93.70;;;2.93;63.52;94775.41;4991694;28;20471;-64
2022/03/08 08:00:07;;;;;;;25.03;14.00;;;3.20;93.70;;;2.95;62.87;94778.75;4990143;28;20490;-56
2022/03/08 08:02:35;;;;;;;24.53;16.53;;;3.20;93.60;;;2.94;63.40;94771.88;4993159;28;20496;-67
2022/03/08 08:05:04;;;;;;;22.90;15.80;;;3.20;93.60;;;2.96;62.77;94783.84;4992260;28;20454;-66
2022/03/08 08:07:32;;;;;;;22.63;15.50;;;3.30;93.50;;;2.95;62.76;94778.75;4997864;28;20565;-65
2022/03/08 08:10:00;;;;;;;22.80;15.67;;;3.20;92.90;;;2.93;62.79;94778.84;4992004;28;20545;-55
2022/03/08 08:12:28;;;;;;;23.93;15.70;;;3.30;93.20;;;2.93;62.73;94775.41;5000599;28;20480;-64
2022/03/08 08:14:55;;;;;;;17.63;13.03;;;3.20;93.00;;;2.95;61.79;94768.38;5008584;28;20454;-56
2022/03/08 08:17:23;;;;;;;22.53;14.40;;;3.30;92.80;;;2.95;62.98;94781.34;4993303;28;20474;-67
2022/03/08 08:19:50;;;;;;;19.73;13.43;;;3.30;93.10;;;2.98;63.32;94778.56;4992285;28;20462;-68
2022/03/08 08:22:19;;;;;;;18.30;12.20;;;3.30;93.30;;;2.95;62.53;94779.59;4992389;28;20834;-66
2022/03/08 08:24:46;;;;;;;17.40;12.37;;;3.30;92.70;;;2.94;61.73;94782.28;4999511;28;20450;-54
2022/03/08 08:27:14;;;;;;;18.27;12.30;;;3.20;92.70;;;2.91;62.16;94785.06;4996460;28;20924;-57
2022/03/08 08:29:41;;;;;;;23.80;14.27;;;3.20;92.00;;;2.82;60.20;94779.53;5000980;28;20476;-55
2022/03/08 08:32:09;;;;;;;19.20;13.53;;;3.10;91.20;;;2.75;62.77;94786.00;5001767;28;20473;-56
2022/03/08 08:34:36;;;;;;;24.53;14.37;;;3.10;92.40;;;2.73;62.28;94781.84;4995086;28;20508;-57
2022/03/08 08:37:04;;;;;;;20.97;14.07;;;3.00;92.70;;;2.73;62.59;94785.28;4991951;28;20474;-55
2022/03/08 08:39:33;;;;;;;23.97;15.93;;;3.00;92.90;;;2.75;61.57;94786.00;4992584;28;20509;-56
2022/03/08 08:42:01;;;;;;;23.90;15.03;;;3.10;91.90;;;2.71;60.53;94778.50;4995350;28;20470;-68
2022/03/08 08:44:28;;;;;;;22.03;14.37;;;3.00;91.70;;;2.67;62.09;94788.25;5002560;28;20486;-67
2022/03/08 08:46:56;;;;;;;23.30;14.90;;;3.00;91.90;;;2.62;60.83;94782.53;4998204;28;20518;-56
2022/03/08 08:49:25;;;;;;;26.60;15.70;;;2.90;91.20;;;2.53;61.56;94788.28;5002119;28;20502;-54
2022/03/08 08:51:52;;;;;;;25.90;17.47;;;2.90;91.40;;;2.46;61.17;94799.03;5004350;28;20927;-55
2022/03/08 08:54:19;;;;;;;29.10;17.00;;;2.80;91.60;;;2.42;61.93;94794.94;4991073;28;20570;-66
2022/03/08 08:56:48;;;;;;;34.03;17.50;;;2.80;91.80;;;2.41;62.66;94793.25;4991597;28;20520;-53
2022/03/08 08:59:16;;;;;;;27.77;17.47;;;2.80;92.30;;;2.41;61.46;94795.84;4991905;28;20502;-66
2022/03/08 09:01:43;;;;;;;28.53;17.43;;;2.80;91.80;;;2.37;61.36;94794.38;4989408;28;20855;-64
2022/03/08 09:04:11;;;;;;;28.40;15.73;;;2.70;91.80;;;2.33;60.30;94792.91;4988482;28;20497;-55
2022/03/08 09:06:39;;;;;;;27.80;17.47;;;2.70;91.30;;;2.28;61.31;94792.34;4993244;28;20562;-65
2022/03/08 09:09:07;;;;;;;29.37;17.17;;;2.60;91.70;;;2.24;61.00;94798.63;5003597;28;20576;-56
2022/03/08 09:11:34;;;;;;;30.40;18.77;;;2.60;91.20;;;2.22;61.34;94795.31;5004821;28;20483;-63
2022/03/08 09:14:04;;;;;;;28.90;17.60;;;2.60;91.80;;;2.22;62.26;94793.53;4991132;28;20543;-66
2022/03/08 09:16:31;;;;;;;26.30;17.07;;;2.60;92.10;;;2.26;61.81;94794.19;4993161;28;20475;-65
2022/03/08 09:18:59;;;;;;;27.77;17.07;;;2.60;92.20;;;2.31;62.06;94797.34;4993062;28;20461;-65
2022/03/08 09:21:26;;;;;;;29.00;17.70;;;2.60;92.30;;;2.33;61.94;94792.91;4994248;28;21532;-56
2022/03/08 09:23:53;;;;;;;31.93;17.63;;;2.60;92.00;;;2.32;61.02;94797.25;4991034;28;21026;-57
2022/03/08 09:26:21;;;;;;;30.90;18.63;;;2.60;91.70;;;2.35;60.49;94796.22;4990468;28;20478;-57
2022/03/08 09:28:48;;;;;;;32.00;18.70;;;2.70;91.30;;;2.34;61.00;94799.75;4998278;28;20462;-65
2022/03/08 09:31:17;;;;;;;28.40;18.40;;;2.70;91.60;;;2.39;62.03;94797.72;4989999;28;20982;-64
2022/03/08 09:33:44;;;;;;;34.13;18.97;;;2.70;91.70;;;2.43;60.62;94799.22;4994998;28;20833;-56
2022/03/08 09:36:12;;;;;;;30.17;18.70;;;2.70;91.30;;;2.46;60.53;94803.38;4986334;28;20470;-63
2022/03/08 09:38:40;;;;;;;29.50;18.87;;;2.80;91.40;;;2.50;61.39;94797.06;4993328;28;20458;-64
2022/03/08 09:41:07;;;;;;;26.90;17.60;;;2.80;91.60;;;2.55;59.89;94799.38;4996098;28;20508;-65
2022/03/08 09:43:37;;;;;;;29.40;17.80;;;2.90;90.80;;;2.55;59.94;94789.84;4994854;28;20481;-63
2022/03/08 09:46:04;;;;;;;30.33;19.40;;;2.90;90.50;;;2.53;60.35;94803.84;4996561;28;20473;-56
2022/03/08 09:48:33;;;;;;;29.43;19.17;;;2.90;90.60;;;2.54;61.02;94808.94;4993666;28;20458;-66
2022/03/08 09:51:01;;;;;;;39.23;21.70;;;2.90;91.20;;;2.56;60.80;94799.28;4978978;28;20488;-64
2022/03/08 09:53:30;;;;;;;28.37;17.03;;;2.90;91.20;;;2.64;61.17;94794.47;4985868;28;20470;-56
2022/03/08 09:55:59;;;;;;;29.70;18.27;;;2.90;91.70;;;2.74;60.76;94799.09;4992674;28;20497;-61
2022/03/08 09:58:26;;;;;;;29.90;18.17;;;3.00;91.90;;;2.82;61.66;94796.84;4995905;28;20534;-64
2022/03/08 10:00:55;;;;;;;28.00;18.53;;;3.10;91.70;;;2.89;60.02;94797.31;4995017;28;20477;-62
2022/03/08 10:03:34;;;;;;;26.57;16.63;;;3.20;91.20;;;2.95;60.67;94804.75;4995616;28;20799;-56
2022/03/08 10:06:02;;;;;;;33.73;19.30;;;3.20;91.40;;;2.98;60.12;94804.53;5006267;28;20484;-65
2022/03/08 10:08:29;;;;;;;32.33;18.37;;;3.30;91.30;;;3.02;60.28;94804.25;4987290;28;20439;-65
2022/03/08 10:11:00;;;;;;;30.40;19.30;;;3.30;91.30;;;3.08;60.38;94802.19;4991455;28;20477;-57
2022/03/08 10:13:30;;;;;;;26.17;16.83;;;3.30;91.20;;;3.16;59.99;94808.59;4989915;28;20455;-53
2022/03/08 10:16:10;;;;;;;30.97;17.93;;;3.40;91.10;;;3.22;60.80;94804.75;4995282;28;20573;-56
2022/03/08 10:18:40;;;;;;;30.17;17.40;;;3.50;91.10;;;3.20;59.88;94802.25;4989850;28;20971;-65
2022/03/08 10:21:30;;;;;;;27.77;17.63;;;3.50;90.80;;;3.17;59.73;94810.25;4985760;28;20499;-56
2022/03/08 10:23:57;;;;;;;26.90;17.10;;;3.50;90.60;;;3.15;60.30;94809.50;4998691;28;20477;-57